createdAt,value
2023-10-20T00:02:43.939Z,99067.44
2023-10-20T00:05:46.814Z,99059.38
2023-10-20T00:08:49.222Z,99061.34
2023-10-20T00:11:52.653Z,99069.16
2023-10-20T00:14:55.029Z,99079.69
2023-10-20T00:17:57.868Z,99069.09
2023-10-20T00:21:00.374Z,99065.50
2023-10-20T00:24:03.736Z,99083.03
2023-10-20T00:27:06.256Z,99071.50
2023-10-20T00:30:10.942Z,99073.25
2023-10-20T00:33:13.566Z,99068.72
2023-10-20T00:36:16.318Z,99078.47
2023-10-20T00:39:18.961Z,99080.28
2023-10-20T00:42:21.652Z,99068.84
2023-10-20T00:45:24.229Z,99073.19
2023-10-20T00:48:27.128Z,99070.56
2023-10-20T00:51:30.207Z,99063.69
2023-10-20T00:54:33.816Z,99054.81
2023-10-20T00:57:36.648Z,99057.38
2023-10-20T01:00:39.605Z,99050.44
2023-10-20T01:03:42.135Z,99053.00
2023-10-20T01:06:45.869Z,99046.97
2023-10-20T01:09:48.675Z,99043.31
2023-10-20T01:12:51.502Z,99037.16
2023-10-20T01:15:55.268Z,99010.75
2023-10-20T01:19:01.440Z,98999.16
2023-10-20T01:22:05.174Z,98994.00
2023-10-20T01:25:08.517Z,98992.28
2023-10-20T01:28:12.044Z,98980.91
2023-10-20T01:31:15.031Z,98957.47
2023-10-20T01:34:17.534Z,98969.63
2023-10-20T01:37:20.384Z,98977.53
2023-10-20T01:40:23.693Z,98981.78
2023-10-20T01:43:26.595Z,98977.38
2023-10-20T01:46:30.174Z,98965.97
2023-10-20T01:49:33.102Z,98982.75
2023-10-20T01:52:35.571Z,98972.25
2023-10-20T01:55:41.042Z,98979.31
2023-10-20T01:58:44.296Z,98996.00
2023-10-20T02:01:47.551Z,98991.59
2023-10-20T02:04:50.695Z,99001.22
2023-10-20T02:07:53.443Z,98995.00
2023-10-20T02:10:56.255Z,98997.75
2023-10-20T02:13:59.087Z,98991.63
2023-10-20T02:17:01.861Z,98971.56
2023-10-20T02:20:05.265Z,98985.47
2023-10-20T02:23:08.755Z,98975.06
2023-10-20T02:26:12.535Z,98979.44
2023-10-20T02:29:16.829Z,98978.53
2023-10-20T02:32:19.613Z,98969.91
2023-10-20T02:35:22.864Z,98971.81
2023-10-20T02:38:25.786Z,98959.53
2023-10-20T02:41:29.894Z,98958.63
2023-10-20T02:44:33.093Z,98953.50
2023-10-20T02:47:35.863Z,98970.16
2023-10-20T02:50:40.290Z,98957.06
2023-10-20T02:53:43.051Z,98970.31
2023-10-20T02:56:45.991Z,98964.22
2023-10-20T02:59:52.039Z,98958.13
2023-10-20T03:02:55.313Z,98965.22
2023-10-20T03:05:58.253Z,98964.31
2023-10-20T03:09:01.613Z,98970.53
2023-10-20T03:12:04.785Z,98961.03
2023-10-20T03:15:09.986Z,98966.19
2023-10-20T03:18:15.491Z,98968.84
2023-10-20T03:21:19.550Z,98968.88
2023-10-20T03:24:22.130Z,98982.13
2023-10-20T03:27:25.154Z,98954.03
2023-10-20T03:30:29.206Z,98969.97
2023-10-20T03:33:32.130Z,98973.41
2023-10-20T03:36:35.565Z,98964.56
2023-10-20T03:39:38.370Z,98957.75
2023-10-20T03:42:44.774Z,98946.34
2023-10-20T03:45:53.430Z,98962.94
2023-10-20T03:48:55.923Z,98952.47
2023-10-20T03:51:58.631Z,98963.84
2023-10-20T03:55:02.100Z,98944.56
2023-10-20T03:58:04.941Z,98942.91
2023-10-20T04:01:09.277Z,98949.88
2023-10-20T04:04:13.235Z,98945.47
2023-10-20T04:07:16.448Z,98939.44
2023-10-20T04:10:22.514Z,98949.19
2023-10-20T04:13:25.053Z,98941.16
2023-10-20T04:16:29.096Z,98946.50
2023-10-20T04:19:33.000Z,98943.97
2023-10-20T04:22:37.434Z,98963.22
2023-10-20T04:25:53.941Z,98941.44
2023-10-20T04:29:25.668Z,98951.88
2023-10-20T04:32:47.397Z,98945.47
2023-10-20T04:36:09.431Z,98952.75
2023-10-20T04:39:30.850Z,98934.41
2023-10-20T04:42:36.681Z,98967.81
2023-10-20T04:45:45.269Z,98981.03
2023-10-20T04:49:07.240Z,98981.88
2023-10-20T04:52:13.486Z,98990.63
2023-10-20T04:55:29.087Z,98978.38
2023-10-20T04:58:41.602Z,98965.22
2023-10-20T05:01:51.245Z,98972.19
2023-10-20T05:04:54.316Z,98981.91
2023-10-20T05:08:14.153Z,98985.44
2023-10-20T05:11:16.941Z,98974.88
2023-10-20T05:14:20.394Z,98993.22
2023-10-20T05:17:23.300Z,98979.28
2023-10-20T05:20:26.970Z,98966.16
2023-10-20T05:23:29.405Z,98970.63
2023-10-20T05:26:33.270Z,98983.81
2023-10-20T05:29:35.955Z,98986.44
2023-10-20T05:32:39.620Z,98988.16
2023-10-20T05:35:42.726Z,98983.78
2023-10-20T05:38:46.339Z,98985.53
2023-10-20T05:41:49.667Z,98979.31
2023-10-20T05:45:12.121Z,98978.44
2023-10-20T05:48:15.062Z,98986.41
2023-10-20T05:51:18.017Z,98981.16
2023-10-20T05:54:21.388Z,98974.06
2023-10-20T05:57:24.551Z,98967.03
2023-10-20T06:00:27.895Z,98990.81
2023-10-20T06:03:32.789Z,98978.69
2023-10-20T06:06:36.067Z,98984.75
2023-10-20T06:09:39.057Z,98997.81
2023-10-20T06:12:44.350Z,99004.84
2023-10-20T06:15:48.039Z,99005.81
2023-10-20T06:18:51.213Z,99003.13
2023-10-20T06:21:54.654Z,99008.28
2023-10-20T06:24:57.360Z,98989.00
2023-10-20T06:28:00.548Z,98991.69
2023-10-20T06:31:19.456Z,99000.44
2023-10-20T06:34:25.664Z,99004.78
2023-10-20T06:37:37.866Z,98998.56
2023-10-20T06:40:42.009Z,99011.03
2023-10-20T06:43:48.474Z,98987.31
2023-10-20T06:46:53.078Z,98991.72
2023-10-20T06:49:56.010Z,98984.84
2023-10-20T06:52:59.164Z,99012.81
2023-10-20T06:56:14.098Z,98985.56
2023-10-20T06:59:18.162Z,98977.66
2023-10-20T07:02:21.310Z,98983.03
2023-10-20T07:05:25.768Z,98989.94
2023-10-20T07:08:28.725Z,98972.41
2023-10-20T07:11:34.093Z,98971.53
2023-10-20T07:14:36.999Z,98986.44
2023-10-20T07:17:40.007Z,98967.09
2023-10-20T07:20:43.478Z,98958.34
2023-10-20T07:23:47.144Z,98966.25
2023-10-20T07:26:51.150Z,98972.41
2023-10-20T07:29:54.554Z,98997.06
2023-10-20T07:32:58.815Z,99009.34
2023-10-20T07:36:06.025Z,99022.41
2023-10-20T07:39:10.604Z,99035.50
2023-10-20T07:42:17.823Z,99023.25
2023-10-20T07:45:20.667Z,99005.75
2023-10-20T07:48:23.707Z,98995.06
2023-10-20T07:51:27.085Z,99001.31
2023-10-20T07:54:33.680Z,98989.91
2023-10-20T07:57:36.917Z,98976.63
2023-10-20T08:00:40.001Z,98981.91
2023-10-20T08:03:47.719Z,98967.03
2023-10-20T08:06:51.089Z,98994.22
2023-10-20T08:09:53.926Z,98978.50
2023-10-20T08:12:57.250Z,98993.41
2023-10-20T08:16:02.788Z,98999.38
2023-10-20T08:19:06.491Z,98992.31
2023-10-20T08:22:08.966Z,98982.69
2023-10-20T08:25:12.649Z,98964.28
2023-10-20T08:28:15.321Z,98973.13
2023-10-20T08:31:19.123Z,99003.63
2023-10-20T08:34:22.362Z,98995.84
2023-10-20T08:37:26.395Z,98988.75
2023-10-20T08:41:01.192Z,98989.63
2023-10-20T08:44:00.648Z,98995.72
2023-10-20T08:47:05.147Z,98992.16
2023-10-20T08:50:09.456Z,98982.63
2023-10-20T08:53:15.193Z,98985.31
2023-10-20T08:56:18.509Z,98990.63
2023-10-20T08:59:21.413Z,98960.03
2023-10-20T09:02:24.834Z,98987.16
2023-10-20T09:05:28.332Z,98975.63
2023-10-20T09:08:35.502Z,98972.94
2023-10-20T09:11:42.128Z,98994.84
2023-10-20T09:14:45.336Z,98985.50
2023-10-20T09:17:55.402Z,98969.66
2023-10-20T09:21:06.076Z,98982.84
2023-10-20T09:24:10.777Z,98986.38
2023-10-20T09:27:14.150Z,98984.50
2023-10-20T09:30:17.127Z,98975.78
2023-10-20T09:33:20.334Z,98985.47
2023-10-20T09:36:26.769Z,98985.47
2023-10-20T09:39:39.726Z,98961.84
2023-10-20T09:43:22.724Z,98967.88
2023-10-20T09:46:58.470Z,98968.75
2023-10-20T09:50:06.971Z,98940.69
2023-10-20T09:53:11.109Z,98930.19
2023-10-20T09:56:14.753Z,98936.16
2023-10-20T09:59:22.170Z,98914.34
2023-10-20T10:02:29.476Z,98929.25
2023-10-20T10:05:32.563Z,98919.47
2023-10-20T10:08:39.140Z,98907.13
2023-10-20T10:11:44.508Z,98916.59
2023-10-20T10:15:06.841Z,98933.28
2023-10-20T10:18:13.873Z,98915.84
2023-10-20T10:21:33.880Z,98914.88
2023-10-20T10:24:38.565Z,98908.06
2023-10-20T10:27:41.075Z,98902.78
2023-10-20T10:30:45.040Z,98916.69
2023-10-20T10:33:48.745Z,98910.50
2023-10-20T10:36:51.662Z,98912.28
2023-10-20T10:39:55.060Z,98906.13
2023-10-20T10:42:58.735Z,98913.34
2023-10-20T10:46:01.415Z,98901.59
2023-10-20T10:49:11.474Z,98896.38
2023-10-20T10:52:15.533Z,98882.38
2023-10-20T10:55:19.169Z,98872.81
2023-10-20T10:58:22.394Z,98867.56
2023-10-20T11:01:25.487Z,98871.84
2023-10-20T11:04:29.148Z,98885.88
2023-10-20T11:07:32.411Z,98879.75
2023-10-20T11:10:36.986Z,98893.09
2023-10-20T11:13:44.798Z,98883.38
2023-10-20T11:16:49.252Z,98907.06
2023-10-20T11:19:52.214Z,98902.72
2023-10-20T11:22:55.602Z,98899.25
2023-10-20T11:26:02.681Z,98915.94
2023-10-20T11:29:08.972Z,98897.50
2023-10-20T11:32:14.638Z,98912.50
2023-10-20T11:35:17.531Z,98931.84
2023-10-20T11:38:20.907Z,98945.88
2023-10-20T11:41:23.534Z,98944.16
2023-10-20T11:44:27.052Z,98958.19
2023-10-20T11:47:29.980Z,98955.53
2023-10-20T11:50:33.292Z,98965.19
2023-10-20T11:53:43.742Z,98965.13
2023-10-20T11:56:46.793Z,98956.38
2023-10-20T11:59:49.792Z,98951.06
2023-10-20T12:02:53.409Z,98944.00
2023-10-20T12:05:56.711Z,98935.38
2023-10-20T12:09:00.321Z,98937.09
2023-10-20T12:12:02.923Z,98941.41
2023-10-20T12:15:06.828Z,98951.16
2023-10-20T12:18:09.908Z,98941.56
2023-10-20T12:21:14.605Z,98934.53
2023-10-20T12:24:18.283Z,98921.41
2023-10-20T12:27:22.682Z,98937.16
2023-10-20T12:30:25.932Z,98946.03
2023-10-20T12:33:29.657Z,98932.81
2023-10-20T12:36:33.494Z,98922.31
2023-10-20T12:39:37.042Z,98924.13
2023-10-20T12:42:39.865Z,98915.38
2023-10-20T12:45:44.199Z,98896.16
2023-10-20T12:48:47.966Z,98893.50
2023-10-20T12:51:51.046Z,98908.38
2023-10-20T12:54:54.376Z,98908.31
2023-10-20T12:57:58.125Z,98924.13
2023-10-20T13:01:00.912Z,98918.00
2023-10-20T13:04:16.258Z,98921.56
2023-10-20T13:07:18.921Z,98917.28
2023-10-20T13:10:22.428Z,98939.16
2023-10-20T13:13:25.283Z,98949.59
2023-10-20T13:16:28.272Z,98942.59
2023-10-20T13:19:31.428Z,98946.06
2023-10-20T13:22:34.912Z,98932.97
2023-10-20T13:25:37.488Z,98947.81
2023-10-20T13:28:40.343Z,98941.63
2023-10-20T13:31:43.341Z,98947.81
2023-10-20T13:34:46.394Z,98931.28
2023-10-20T13:37:49.470Z,98942.59
2023-10-20T13:40:53.528Z,98914.66
2023-10-20T13:43:56.346Z,98923.44
2023-10-20T13:46:59.263Z,98911.19
2023-10-20T13:50:06.071Z,98907.81
2023-10-20T13:53:13.390Z,98910.41
2023-10-20T13:56:18.567Z,98926.16
2023-10-20T13:59:21.580Z,98926.06
2023-10-20T14:02:24.590Z,98913.81
2023-10-20T14:05:29.402Z,98901.53
2023-10-20T14:08:32.225Z,98920.88
2023-10-20T14:11:35.255Z,98884.97
2023-10-20T14:14:38.082Z,98909.41
2023-10-20T14:17:41.091Z,98889.22
2023-10-20T14:20:44.217Z,98897.03
2023-10-20T14:23:47.469Z,98894.41
2023-10-20T14:26:50.587Z,98895.38
2023-10-20T14:29:53.692Z,98892.78
2023-10-20T14:32:56.510Z,98893.63
2023-10-20T14:35:59.766Z,98875.28
2023-10-20T14:39:02.548Z,98867.34
2023-10-20T14:42:06.099Z,98877.81
2023-10-20T14:45:11.350Z,98877.78
2023-10-20T14:48:18.052Z,98855.09
2023-10-20T14:51:21.306Z,98860.25
2023-10-20T14:54:24.391Z,98863.03
2023-10-20T14:57:27.256Z,98874.38
2023-10-20T15:00:30.690Z,98851.69
2023-10-20T15:03:34.065Z,98858.66
2023-10-20T15:06:37.282Z,98884.09
2023-10-20T15:09:40.681Z,98892.88
2023-10-20T15:12:44.377Z,98893.69
2023-10-20T15:15:48.394Z,98872.66
2023-10-20T15:18:51.421Z,98883.22
2023-10-20T15:21:54.617Z,98884.09
2023-10-20T15:24:58.378Z,98885.81
2023-10-20T15:28:00.998Z,98883.22
2023-10-20T15:31:10.877Z,98891.13
2023-10-20T15:34:15.137Z,98900.72
2023-10-20T15:37:19.183Z,98910.28
2023-10-20T15:40:22.115Z,98907.59
2023-10-20T15:43:25.386Z,98905.84
2023-10-20T15:46:29.059Z,98919.91
2023-10-20T15:49:32.202Z,98910.34
2023-10-20T15:52:36.809Z,98911.25
2023-10-20T15:55:41.410Z,98918.94
2023-10-20T15:58:44.474Z,98904.13
2023-10-20T16:01:47.819Z,98911.19
2023-10-20T16:04:54.145Z,98903.22
2023-10-20T16:07:57.206Z,98881.38
2023-10-20T16:10:59.673Z,98887.44
2023-10-20T16:14:03.207Z,98890.94
2023-10-20T16:17:06.447Z,98899.78
2023-10-20T16:20:10.589Z,98911.97
2023-10-20T16:23:13.988Z,98927.75
2023-10-20T16:26:17.159Z,98923.31
2023-10-20T16:29:19.729Z,98895.28
2023-10-20T16:32:23.038Z,98911.00
2023-10-20T16:35:25.952Z,98902.19
2023-10-20T16:38:29.708Z,98912.78
2023-10-20T16:41:32.828Z,98903.22
2023-10-20T16:44:37.386Z,98910.22
2023-10-20T16:47:40.462Z,98905.84
2023-10-20T16:50:44.427Z,98916.31
2023-10-20T16:53:49.104Z,98923.34
2023-10-20T16:56:52.987Z,98926.84
2023-10-20T16:59:56.435Z,98913.66
2023-10-20T17:03:01.520Z,98913.59
2023-10-20T17:06:06.653Z,98925.84
2023-10-20T17:09:12.147Z,98909.06
2023-10-20T17:12:15.020Z,98907.31
2023-10-20T17:15:19.324Z,98901.22
2023-10-20T17:18:22.335Z,98897.63
2023-10-20T17:21:25.692Z,98890.56
2023-10-20T17:24:29.060Z,98894.16
2023-10-20T17:27:32.607Z,98890.63
2023-10-20T17:30:38.592Z,98887.94
2023-10-20T17:33:41.664Z,98887.09
2023-10-20T17:36:45.595Z,98881.84
2023-10-20T17:39:51.182Z,98887.91
2023-10-20T17:42:54.616Z,98884.34
2023-10-20T17:46:00.602Z,98888.75
2023-10-20T17:49:03.987Z,98879.97
2023-10-20T17:52:07.634Z,98881.75
2023-10-20T17:55:10.612Z,98878.22
2023-10-20T17:58:14.242Z,98867.72
2023-10-20T18:01:18.718Z,98871.97
2023-10-20T18:04:23.754Z,98860.59
2023-10-20T18:07:27.094Z,98866.72
2023-10-20T18:10:31.819Z,98870.19
2023-10-20T18:13:41.239Z,98864.03
2023-10-20T18:16:48.315Z,98861.28
2023-10-20T18:19:53.042Z,98858.53
2023-10-20T18:22:57.018Z,98858.63
2023-10-20T18:26:00.920Z,98838.41
2023-10-20T18:29:07.844Z,98851.59
2023-10-20T18:32:11.795Z,98847.22
2023-10-20T18:35:17.674Z,98852.34
2023-10-20T18:38:21.525Z,98853.28
2023-10-20T18:41:26.502Z,98857.66
2023-10-20T18:44:30.720Z,98833.88
2023-10-20T18:47:36.945Z,98828.59
2023-10-20T18:50:41.831Z,98827.72
2023-10-20T18:53:47.693Z,98842.59
2023-10-20T18:56:57.188Z,98829.34
2023-10-20T19:00:05.607Z,98826.81
2023-10-20T19:03:10.802Z,98818.06
2023-10-20T19:06:18.133Z,98839.91
2023-10-20T19:09:32.515Z,98840.00
2023-10-20T19:12:37.968Z,98834.72
2023-10-20T19:15:46.242Z,98846.84
2023-10-20T19:18:53.284Z,98842.38
2023-10-20T19:22:00.254Z,98832.91
2023-10-20T19:25:09.676Z,98831.13
2023-10-20T19:28:15.195Z,98828.50
2023-10-20T19:31:19.665Z,98832.75
2023-10-20T19:34:23.461Z,98832.69
2023-10-20T19:37:27.809Z,98815.13
2023-10-20T19:40:32.585Z,98815.00
2023-10-20T19:43:35.941Z,98816.75
2023-10-20T19:46:39.755Z,98831.66
2023-10-20T19:49:43.911Z,98844.63
2023-10-20T19:52:47.484Z,98853.50
2023-10-20T19:55:51.469Z,98837.63
2023-10-20T19:58:54.823Z,98826.19
2023-10-20T20:01:58.187Z,98830.59
2023-10-20T20:05:01.549Z,98834.97
2023-10-20T20:08:06.105Z,98837.63
2023-10-20T20:11:09.592Z,98836.72
2023-10-20T20:14:13.242Z,98845.50
2023-10-20T20:17:16.236Z,98838.41
2023-10-20T20:20:22.008Z,98844.44
2023-10-20T20:23:26.293Z,98820.78
2023-10-20T20:26:29.438Z,98807.56
2023-10-20T20:29:32.495Z,98807.34
2023-10-20T20:32:35.514Z,98818.81
2023-10-20T20:35:38.283Z,98833.81
2023-10-20T20:38:41.309Z,98833.00
2023-10-20T20:41:43.874Z,98828.44
2023-10-20T20:44:47.137Z,98823.00
2023-10-20T20:47:49.756Z,98797.59
2023-10-20T20:50:52.804Z,98780.84
2023-10-20T20:53:55.997Z,98791.44
2023-10-20T20:56:59.060Z,98793.03
2023-10-20T21:00:01.877Z,98804.41
2023-10-20T21:03:05.749Z,98798.25
2023-10-20T21:06:10.136Z,98811.38
2023-10-20T21:09:13.217Z,98811.28
2023-10-20T21:12:16.255Z,98813.94
2023-10-20T21:15:19.142Z,98808.59
2023-10-20T21:18:22.020Z,98799.78
2023-10-20T21:21:25.649Z,98800.66
2023-10-20T21:24:28.398Z,98804.13
2023-10-20T21:27:31.384Z,98819.16
2023-10-20T21:30:37.644Z,98820.84
2023-10-20T21:33:40.788Z,98820.84
2023-10-20T21:36:43.507Z,98823.44
2023-10-20T21:39:46.617Z,98817.25
2023-10-20T21:42:49.359Z,98810.28
2023-10-20T21:45:59.409Z,98808.41
2023-10-20T21:49:02.263Z,98806.66
2023-10-20T21:52:05.455Z,98813.69
2023-10-20T21:55:09.816Z,98813.75
2023-10-20T21:58:13.402Z,98813.75
2023-10-20T22:01:15.906Z,98803.09
2023-10-20T22:04:19.090Z,98812.72
2023-10-20T22:07:21.927Z,98815.25
2023-10-20T22:10:25.722Z,98820.44
2023-10-20T22:13:28.289Z,98801.94
2023-10-20T22:16:31.496Z,98829.22
2023-10-20T22:19:34.340Z,98835.31
2023-10-20T22:22:37.952Z,98815.97
2023-10-20T22:25:40.471Z,98802.75
2023-10-20T22:28:43.334Z,98802.59
2023-10-20T22:31:46.036Z,98796.69
2023-10-20T22:34:48.940Z,98806.13
2023-10-20T22:37:52.046Z,98804.28
2023-10-20T22:40:55.128Z,98796.50
2023-10-20T22:43:57.883Z,98801.72
2023-10-20T22:47:00.745Z,98785.03
2023-10-20T22:50:08.126Z,98794.66
2023-10-20T22:53:11.686Z,98791.94
2023-10-20T22:56:14.108Z,98783.22
2023-10-20T22:59:17.015Z,98765.59
2023-10-20T23:02:19.547Z,98777.03
2023-10-20T23:05:23.466Z,98778.72
2023-10-20T23:08:28.656Z,98778.72
2023-10-20T23:11:31.742Z,98786.50
2023-10-20T23:14:34.146Z,98793.41
2023-10-20T23:17:37.141Z,98788.47
2023-10-20T23:20:41.050Z,98805.03
2023-10-20T23:23:45.761Z,98811.06
2023-10-20T23:26:48.589Z,98794.38
2023-10-20T23:29:51.458Z,98802.44
2023-10-20T23:32:54.035Z,98810.25
2023-10-20T23:35:58.249Z,98813.88
2023-10-20T23:39:01.027Z,98820.72
2023-10-20T23:42:05.433Z,98824.19
2023-10-20T23:45:08.888Z,98820.63
2023-10-20T23:48:12.651Z,98810.09
2023-10-20T23:51:15.477Z,98807.59
2023-10-20T23:54:18.402Z,98796.97
2023-10-20T23:57:21.021Z,98804.88
